Time;durP1;ratioP1;P1;durP2;ratioP2;P2;SDS_P1;SDS_P2;PMS_P1;PMS_P2;Temp;Humidity;BMP_temperature;BMP_pressure;BME280_temperature;BME280_humidity;BME280_pressure;Samples;Min_cycle;Max_cycle;Signal;HPM_P1;HPM_P2
2022/01/28 00:04:49;;;;;;;34.53;5.45;;;;;;;;;;5000151;28;20117;-69
2022/01/28 00:07:15;;;;;;;35.03;5.72;;;;;;;;;;4990869;28;20030;-70
2022/01/28 00:09:41;;;;;;;33.20;4.28;;;;;;;;;;4986119;28;20034;-71
2022/01/28 00:12:08;;;;;;;25.73;4.30;;;;;;;;;;4986310;28;20037;-69
2022/01/28 00:39:22;;;;;;;34.40;5.32;;;;;;;;;;4985817;28;20073;-70
2022/01/28 00:41:47;;;;;;;41.30;6.18;;;;;;;;;;4985922;28;20184;-71
2022/01/28 00:44:13;;;;;;;34.45;3.65;;;;;;;;;;4985736;28;20022;-70
2022/01/28 00:46:38;;;;;;;35.00;5.20;;;;;;;;;;5000744;28;20027;-70
2022/01/28 00:49:04;;;;;;;34.83;4.72;;;;;;;;;;4999741;28;20037;-71
2022/01/28 00:51:31;;;;;;;39.10;5.72;;;;;;;;;;4985607;28;20052;-69
2022/01/28 00:53:59;;;;;;;37.78;4.85;;;;;;;;;;4985638;28;20017;-69
2022/01/28 00:56:24;;;;;;;49.30;5.60;;;;;;;;;;4985568;28;20259;-70
2022/01/28 00:58:49;;;;;;;42.70;5.05;;;;;;;;;;4987654;28;20087;-70
2022/01/28 01:01:15;;;;;;;43.20;5.45;;;;;;;;;;5003765;28;20057;-69
2022/01/28 01:03:45;;;;;;;44.35;5.75;;;;;;;;;;5003668;28;20025;-69
2022/01/28 01:06:10;;;;;;;51.58;6.68;;;;;;;;;;5004240;28;20034;-67
2022/01/28 01:08:38;;;;;;;37.83;5.38;;;;;;;;;;4989419;28;20347;-70
2022/01/28 01:11:07;;;;;;;34.15;4.75;;;;;;;;;;4989088;28;20038;-68
2022/01/28 01:13:37;;;;;;;43.28;5.20;;;;;;;;;;4993666;28;20053;-69
2022/01/28 01:16:04;;;;;;;34.42;4.40;;;;;;;;;;5003936;28;20045;-68
2022/01/28 01:18:40;;;;;;;48.38;5.45;;;;;;;;;;4993362;28;20022;-68
2022/01/28 01:21:14;;;;;;;34.80;5.03;;;;;;;;;;4987547;28;20030;-68
2022/01/28 01:23:48;;;;;;;31.25;5.22;;;;;;;;;;4988771;28;20026;-69
2022/01/28 01:26:14;;;;;;;36.83;4.22;;;;;;;;;;4988859;28;20836;-69
2022/01/28 01:28:47;;;;;;;42.17;5.35;;;;;;;;;;4988955;28;20025;-68
2022/01/28 01:31:16;;;;;;;33.15;4.38;;;;;;;;;;4993694;28;20313;-68
2022/01/28 01:33:54;;;;;;;26.88;4.03;;;;;;;;;;4988009;28;20697;-69
2022/01/28 01:36:22;;;;;;;41.25;4.90;;;;;;;;;;4990061;28;20454;-68
2022/01/28 01:38:48;;;;;;;30.27;5.15;;;;;;;;;;4988268;28;20050;-70
2022/01/28 01:41:27;;;;;;;25.55;3.95;;;;;;;;;;4988698;28;20512;-69
2022/01/28 01:46:38;;;;;;;32.35;4.85;;;;;;;;;;4989033;28;20022;-70
2022/01/28 01:52:03;;;;;;;33.15;4.20;;;;;;;;;;4988285;28;20041;-68
2022/01/28 01:54:30;;;;;;;38.33;5.25;;;;;;;;;;4992522;28;20559;-68
2022/01/28 01:56:55;;;;;;;41.58;4.95;;;;;;;;;;4988693;28;20044;-68
2022/01/28 01:59:23;;;;;;;34.15;4.18;;;;;;;;;;5002529;28;20403;-68
2022/01/28 02:01:51;;;;;;;35.65;5.13;;;;;;;;;;4988651;28;20173;-68
2022/01/28 02:04:16;;;;;;;25.98;4.00;;;;;;;;;;4993298;28;20045;-70
2022/01/28 02:06:42;;;;;;;36.58;5.75;;;;;;;;;;4992878;28;20314;-69
2022/01/28 02:09:07;;;;;;;33.80;5.45;;;;;;;;;;4987095;28;20041;-69
2022/01/28 02:11:35;;;;;;;39.53;5.10;;;;;;;;;;4987154;28;20022;-71
2022/01/28 02:14:02;;;;;;;31.05;4.03;;;;;;;;;;4992368;28;20046;-70
2022/01/28 02:16:27;;;;;;;39.00;4.22;;;;;;;;;;4987799;28;20034;-70
2022/01/28 02:18:56;;;;;;;38.00;4.30;;;;;;;;;;4987044;28;20033;-71
2022/01/28 02:21:21;;;;;;;34.83;5.35;;;;;;;;;;4988104;28;20030;-70
2022/01/28 02:23:51;;;;;;;34.00;4.70;;;;;;;;;;5001911;28;20026;-70
2022/01/28 02:26:19;;;;;;;44.38;5.18;;;;;;;;;;4987887;28;20036;-70
2022/01/28 02:28:54;;;;;;;28.73;3.85;;;;;;;;;;4987141;28;20034;-70
2022/01/28 02:31:24;;;;;;;38.50;6.00;;;;;;;;;;4988268;28;20030;-71
2022/01/28 02:33:55;;;;;;;28.65;4.10;;;;;;;;;;4987491;28;20439;-71
2022/01/28 02:36:20;;;;;;;35.42;4.13;;;;;;;;;;4976049;28;20034;-70
2022/01/28 02:38:47;;;;;;;29.23;4.60;;;;;;;;;;4986983;28;20145;-69
2022/01/28 02:41:15;;;;;;;31.30;5.18;;;;;;;;;;4987717;28;21951;-69
2022/01/28 02:44:00;;;;;;;39.80;5.13;;;;;;;;;;4991419;28;20473;-70
2022/01/28 02:46:30;;;;;;;34.58;4.10;;;;;;;;;;5002122;28;20133;-70
2022/01/28 02:49:04;;;;;;;22.90;4.05;;;;;;;;;;4987080;28;20155;-70
2022/01/28 02:51:30;;;;;;;32.03;4.25;;;;;;;;;;4992175;28;20072;-70
2022/01/28 02:53:58;;;;;;;31.40;4.20;;;;;;;;;;4986731;28;20133;-70
2022/01/28 02:58:56;;;;;;;32.20;5.07;;;;;;;;;;4987008;28;20046;-71
2022/01/28 03:01:21;;;;;;;34.47;5.07;;;;;;;;;;4987794;28;20032;-70
2022/01/28 03:03:50;;;;;;;34.58;4.63;;;;;;;;;;4986785;28;20135;-70
2022/01/28 03:06:17;;;;;;;41.00;5.15;;;;;;;;;;4987323;28;20086;-71
2022/01/28 03:08:51;;;;;;;29.55;3.60;;;;;;;;;;4986909;28;20034;-71
2022/01/28 03:14:01;;;;;;;38.05;5.45;;;;;;;;;;4986399;28;20313;-70
2022/01/28 03:16:32;;;;;;;31.45;3.78;;;;;;;;;;5001472;28;20422;-69
2022/01/28 03:19:14;;;;;;;28.23;4.65;;;;;;;;;;4987097;28;20192;-69
2022/01/28 03:21:53;;;;;;;34.10;5.28;;;;;;;;;;4986743;28;20030;-70
2022/01/28 03:24:18;;;;;;;35.00;5.13;;;;;;;;;;4986761;28;20062;-70
2022/01/28 03:26:43;;;;;;;26.17;4.40;;;;;;;;;;5001425;28;20117;-70
2022/01/28 03:29:12;;;;;;;29.17;3.97;;;;;;;;;;4985080;28;20502;-68
2022/01/28 03:31:38;;;;;;;27.42;4.15;;;;;;;;;;4986288;28;20113;-71
2022/01/28 03:34:04;;;;;;;23.38;3.80;;;;;;;;;;4987039;28;20053;-70
2022/01/28 03:36:30;;;;;;;31.33;4.20;;;;;;;;;;4986452;28;20025;-71
2022/01/28 03:38:57;;;;;;;29.25;4.13;;;;;;;;;;4985842;28;20061;-69
2022/01/28 03:41:25;;;;;;;50.75;6.28;;;;;;;;;;4991374;28;20470;-70
2022/01/28 03:43:58;;;;;;;24.80;4.65;;;;;;;;;;4989866;28;20049;-70
2022/01/28 03:46:25;;;;;;;32.40;4.18;;;;;;;;;;4987006;28;20038;-70
2022/01/28 03:48:51;;;;;;;37.20;4.45;;;;;;;;;;4986003;28;20379;-70
2022/01/28 03:51:18;;;;;;;40.03;5.38;;;;;;;;;;4986257;28;20107;-70
2022/01/28 03:53:43;;;;;;;40.10;5.40;;;;;;;;;;4985704;28;20220;-70
2022/01/28 03:56:11;;;;;;;30.70;4.25;;;;;;;;;;4986288;28;20034;-70
2022/01/28 03:58:37;;;;;;;32.95;4.95;;;;;;;;;;4990376;28;20081;-69
2022/01/28 04:01:07;;;;;;;29.58;3.60;;;;;;;;;;4987143;28;20120;-69
2022/01/28 04:03:41;;;;;;;29.45;4.60;;;;;;;;;;4985574;28;20139;-70
2022/01/28 04:11:37;;;;;;;35.40;5.00;;;;;;;;;;4998709;28;20033;-70
2022/01/28 04:14:11;;;;;;;38.05;4.63;;;;;;;;;;4974477;28;20105;-71
2022/01/28 04:19:21;;;;;;;35.83;5.05;;;;;;;;;;4985910;28;20080;-69
2022/01/28 04:21:46;;;;;;;31.23;3.70;;;;;;;;;;4990484;28;20821;-69
2022/01/28 04:24:12;;;;;;;29.17;3.38;;;;;;;;;;4985605;28;20053;-69
2022/01/28 04:26:38;;;;;;;27.65;3.53;;;;;;;;;;4990668;28;20042;-69
2022/01/28 04:29:03;;;;;;;40.47;5.85;;;;;;;;;;4985523;28;20116;-69
2022/01/28 04:31:28;;;;;;;19.48;3.03;;;;;;;;;;5000466;28;20069;-69
2022/01/28 04:33:55;;;;;;;26.70;4.20;;;;;;;;;;5002970;28;20637;-70
2022/01/28 04:36:22;;;;;;;33.60;4.68;;;;;;;;;;4989494;28;20026;-69
2022/01/28 04:39:10;;;;;;;29.55;3.63;;;;;;;;;;4990402;28;20612;-71
2022/01/28 04:41:59;;;;;;;21.83;3.88;;;;;;;;;;4990502;28;20322;-71
2022/01/28 04:44:38;;;;;;;19.95;3.45;;;;;;;;;;5002308;28;20142;-70
2022/01/28 04:47:15;;;;;;;26.77;3.67;;;;;;;;;;4989577;28;20103;-70
2022/01/28 04:49:57;;;;;;;22.58;3.70;;;;;;;;;;4993283;28;20027;-70
2022/01/28 04:52:45;;;;;;;34.53;5.00;;;;;;;;;;4989135;28;20629;-70
2022/01/28 05:00:54;;;;;;;28.00;4.45;;;;;;;;;;4989274;28;20110;-69
2022/01/28 05:11:21;;;;;;;33.67;4.65;;;;;;;;;;4988921;28;20101;-70
2022/01/28 05:14:13;;;;;;;29.45;4.35;;;;;;;;;;5000353;28;20072;-69
2022/01/28 05:27:13;;;;;;;28.00;4.07;;;;;;;;;;4989210;28;20101;-71
2022/01/28 05:29:41;;;;;;;28.80;3.88;;;;;;;;;;4989783;28;20030;-70
2022/01/28 05:32:10;;;;;;;41.50;4.75;;;;;;;;;;4989087;28;20477;-69
2022/01/28 05:34:38;;;;;;;34.10;3.63;;;;;;;;;;4988914;28;20025;-69
2022/01/28 05:37:04;;;;;;;34.35;4.85;;;;;;;;;;4993328;28;20125;-69
2022/01/28 05:39:29;;;;;;;37.45;4.45;;;;;;;;;;4988893;28;20124;-70
2022/01/28 05:41:54;;;;;;;22.85;3.63;;;;;;;;;;4988150;28;20026;-70
2022/01/28 05:44:23;;;;;;;28.30;3.65;;;;;;;;;;4987365;28;20482;-69
2022/01/28 05:47:02;;;;;;;34.65;4.32;;;;;;;;;;4989154;28;20343;-69
2022/01/28 05:49:28;;;;;;;37.15;4.43;;;;;;;;;;4992795;28;20030;-69
2022/01/28 05:51:53;;;;;;;35.42;3.95;;;;;;;;;;4976570;28;20536;-69
2022/01/28 05:54:18;;;;;;;27.48;3.95;;;;;;;;;;4989190;28;20035;-70
2022/01/28 05:56:46;;;;;;;34.67;4.93;;;;;;;;;;5003546;28;20036;-70
2022/01/28 05:59:12;;;;;;;26.30;3.42;;;;;;;;;;4987883;28;20049;-70
2022/01/28 06:01:39;;;;;;;34.00;3.72;;;;;;;;;;4987200;28;20113;-69
2022/01/28 06:04:05;;;;;;;26.90;3.25;;;;;;;;;;4987958;28;20578;-69
2022/01/28 06:06:32;;;;;;;29.30;3.58;;;;;;;;;;4988008;28;20030;-70
2022/01/28 06:08:57;;;;;;;34.10;4.82;;;;;;;;;;4986343;28;20516;-69
2022/01/28 06:11:23;;;;;;;23.27;3.85;;;;;;;;;;4992818;28;20022;-70
2022/01/28 06:13:49;;;;;;;22.80;3.47;;;;;;;;;;4986803;28;20400;-69
2022/01/28 06:16:15;;;;;;;38.97;4.65;;;;;;;;;;4987899;28;20537;-70
2022/01/28 06:18:42;;;;;;;26.75;3.55;;;;;;;;;;4987430;28;20100;-69
2022/01/28 06:21:07;;;;;;;35.70;3.75;;;;;;;;;;4987703;28;20034;-69
2022/01/28 06:23:33;;;;;;;32.10;4.55;;;;;;;;;;4987924;28;20056;-69
2022/01/28 06:25:58;;;;;;;35.75;4.32;;;;;;;;;;4987920;28;20116;-69
2022/01/28 06:28:23;;;;;;;33.85;4.72;;;;;;;;;;4988358;28;20453;-69
2022/01/28 06:30:49;;;;;;;27.95;4.32;;;;;;;;;;4986475;28;20059;-69
2022/01/28 06:33:15;;;;;;;30.58;4.57;;;;;;;;;;4986880;28;20030;-70
2022/01/28 06:35:41;;;;;;;28.98;3.80;;;;;;;;;;4991896;28;20030;-70
2022/01/28 06:38:07;;;;;;;34.53;4.45;;;;;;;;;;4987134;28;20118;-70
2022/01/28 06:40:35;;;;;;;25.55;3.97;;;;;;;;;;5002859;28;20091;-70
2022/01/28 06:43:00;;;;;;;32.10;4.32;;;;;;;;;;4987043;28;20094;-69
2022/01/28 06:45:26;;;;;;;32.45;4.65;;;;;;;;;;4988454;28;20167;-69
2022/01/28 06:47:51;;;;;;;34.15;4.50;;;;;;;;;;4988005;28;20125;-69
2022/01/28 06:50:16;;;;;;;36.15;4.53;;;;;;;;;;4987758;28;20474;-70
2022/01/28 06:52:44;;;;;;;27.48;3.80;;;;;;;;;;4986788;28;20060;-69
2022/01/28 06:55:11;;;;;;;34.70;4.82;;;;;;;;;;4987341;28;20072;-69
2022/01/28 06:57:36;;;;;;;34.50;4.53;;;;;;;;;;4974888;28;20788;-70
2022/01/28 07:00:03;;;;;;;31.13;4.88;;;;;;;;;;4987651;28;20133;-70
2022/01/28 07:02:29;;;;;;;34.20;5.22;;;;;;;;;;4985464;28;20061;-69
2022/01/28 07:04:54;;;;;;;30.50;4.43;;;;;;;;;;4987301;28;22131;-70
2022/01/28 07:07:22;;;;;;;34.95;4.72;;;;;;;;;;4986949;28;20038;-69
2022/01/28 07:09:48;;;;;;;40.17;4.80;;;;;;;;;;4986336;28;20050;-69
2022/01/28 07:12:14;;;;;;;33.10;4.57;;;;;;;;;;4986899;28;20164;-69
2022/01/28 07:14:39;;;;;;;47.80;5.75;;;;;;;;;;4975801;28;20060;-68
2022/01/28 07:17:07;;;;;;;33.08;4.80;;;;;;;;;;4991213;28;20560;-68
2022/01/28 07:19:35;;;;;;;41.85;5.07;;;;;;;;;;4987114;28;20026;-70
2022/01/28 07:22:00;;;;;;;44.30;4.60;;;;;;;;;;4991460;28;20040;-69
2022/01/28 07:24:26;;;;;;;36.50;4.93;;;;;;;;;;5001243;28;20513;-69
2022/01/28 07:26:51;;;;;;;35.65;4.50;;;;;;;;;;4985907;28;20486;-72
2022/01/28 07:29:22;;;;;;;33.65;5.13;;;;;;;;;;4988101;28;20036;-71
2022/01/28 07:31:47;;;;;;;41.08;4.72;;;;;;;;;;4986601;28;20034;-69
2022/01/28 07:34:13;;;;;;;50.53;5.47;;;;;;;;;;5001534;28;20030;-69
2022/01/28 07:36:39;;;;;;;37.25;4.70;;;;;;;;;;5001219;28;20037;-69
2022/01/28 07:39:09;;;;;;;39.63;5.10;;;;;;;;;;4985375;28;20057;-70
2022/01/28 07:41:35;;;;;;;49.42;5.93;;;;;;;;;;4986317;28;20058;-71
2022/01/28 07:44:00;;;;;;;40.78;6.25;;;;;;;;;;5001818;28;20121;-69
2022/01/28 07:46:25;;;;;;;38.75;5.10;;;;;;;;;;4974643;28;20419;-70
2022/01/28 07:48:51;;;;;;;57.08;6.57;;;;;;;;;;4986163;28;20513;-69
2022/01/28 07:51:17;;;;;;;42.50;5.82;;;;;;;;;;4986463;28;20117;-69
2022/01/28 07:53:42;;;;;;;46.83;5.70;;;;;;;;;;4979776;28;20471;-70
2022/01/28 07:56:08;;;;;;;39.33;4.72;;;;;;;;;;4986588;28;20029;-70
2022/01/28 07:58:33;;;;;;;49.10;7.25;;;;;;;;;;4986922;28;20041;-70
2022/01/28 08:00:58;;;;;;;58.17;6.18;;;;;;;;;;5001109;28;20092;-70
2022/01/28 08:03:26;;;;;;;45.60;5.63;;;;;;;;;;4986207;28;20525;-70
2022/01/28 08:05:51;;;;;;;48.60;5.63;;;;;;;;;;4986729;28;20025;-70
2022/01/28 08:08:20;;;;;;;46.70;5.53;;;;;;;;;;4984831;28;20487;-71
2022/01/28 08:10:46;;;;;;;32.85;4.78;;;;;;;;;;4986817;28;21950;-70
2022/01/28 08:13:11;;;;;;;51.30;5.95;;;;;;;;;;4990529;28;20042;-70
2022/01/28 08:15:39;;;;;;;53.70;5.20;;;;;;;;;;4986460;28;20286;-70
2022/01/28 08:18:04;;;;;;;47.20;6.63;;;;;;;;;;5000777;28;20040;-70
2022/01/28 08:20:31;;;;;;;37.10;5.72;;;;;;;;;;4986652;28;20030;-69
2022/01/28 08:23:00;;;;;;;39.67;5.57;;;;;;;;;;4986122;28;20585;-69
2022/01/28 08:25:26;;;;;;;53.58;6.30;;;;;;;;;;5001270;28;20095;-71
2022/01/28 08:27:52;;;;;;;35.80;4.60;;;;;;;;;;4991269;28;20094;-70
2022/01/28 08:30:20;;;;;;;40.97;5.97;;;;;;;;;;4986356;28;20438;-71
2022/01/28 08:32:46;;;;;;;49.67;5.22;;;;;;;;;;4985957;28;20042;-69
2022/01/28 08:35:12;;;;;;;51.38;5.45;;;;;;;;;;4985134;28;20525;-72
2022/01/28 08:37:38;;;;;;;38.70;4.72;;;;;;;;;;4985430;28;20478;-68
2022/01/28 08:40:05;;;;;;;48.15;5.75;;;;;;;;;;4985961;28;20446;-68
2022/01/28 08:42:31;;;;;;;41.03;5.13;;;;;;;;;;4986538;28;20062;-69
2022/01/28 08:44:56;;;;;;;46.00;6.28;;;;;;;;;;4989967;28;20052;-69
2022/01/28 08:47:21;;;;;;;50.30;5.88;;;;;;;;;;4986401;28;20125;-69
2022/01/28 08:49:47;;;;;;;48.17;5.88;;;;;;;;;;4985509;28;20501;-70
2022/01/28 08:52:13;;;;;;;48.05;7.07;;;;;;;;;;4986157;28;20034;-70
2022/01/28 08:54:41;;;;;;;50.88;6.72;;;;;;;;;;4986484;28;20243;-69
2022/01/28 08:57:06;;;;;;;46.53;6.30;;;;;;;;;;4986367;28;20030;-70
2022/01/28 08:59:31;;;;;;;46.00;6.15;;;;;;;;;;4986135;28;20045;-69
2022/01/28 09:01:57;;;;;;;40.90;6.18;;;;;;;;;;4986035;28;20333;-69
2022/01/28 09:04:22;;;;;;;55.72;6.53;;;;;;;;;;4985508;28;20457;-69
2022/01/28 09:06:48;;;;;;;48.85;7.22;;;;;;;;;;4985300;28;20037;-70
2022/01/28 09:09:19;;;;;;;48.95;7.53;;;;;;;;;;4985307;28;20060;-69
2022/01/28 09:12:07;;;;;;;55.05;6.15;;;;;;;;;;4984775;28;20073;-69
2022/01/28 09:14:33;;;;;;;49.22;7.72;;;;;;;;;;4986413;28;20038;-70
2022/01/28 09:16:59;;;;;;;55.28;6.00;;;;;;;;;;4987737;28;20776;-69
2022/01/28 09:19:24;;;;;;;69.15;6.25;;;;;;;;;;4986754;28;20030;-70
2022/01/28 09:21:50;;;;;;;41.88;6.15;;;;;;;;;;4989533;28;21883;-70
2022/01/28 09:24:15;;;;;;;45.53;6.05;;;;;;;;;;4988794;28;20235;-70
2022/01/28 09:26:41;;;;;;;49.83;5.88;;;;;;;;;;4989545;28;20049;-70
2022/01/28 09:29:06;;;;;;;49.22;6.05;;;;;;;;;;4988967;28;20365;-70
2022/01/28 09:31:32;;;;;;;41.90;6.03;;;;;;;;;;4989042;28;20026;-68
2022/01/28 09:33:58;;;;;;;57.95;6.28;;;;;;;;;;4988551;28;20116;-68
2022/01/28 09:36:23;;;;;;;45.58;5.07;;;;;;;;;;5003560;28;20030;-68
2022/01/28 09:38:49;;;;;;;38.50;5.22;;;;;;;;;;4988607;28;20564;-67
2022/01/28 09:41:15;;;;;;;48.88;5.90;;;;;;;;;;5004046;28;20042;-68
2022/01/28 09:43:42;;;;;;;39.88;6.53;;;;;;;;;;4988954;28;20177;-68
2022/01/28 09:46:08;;;;;;;35.97;5.28;;;;;;;;;;4989130;28;20504;-70
2022/01/28 09:48:34;;;;;;;44.10;5.13;;;;;;;;;;4988762;28;20108;-69
2022/01/28 09:51:00;;;;;;;43.28;5.35;;;;;;;;;;5003258;28;20060;-67
2022/01/28 09:53:26;;;;;;;38.78;5.35;;;;;;;;;;4988539;28;20036;-68
2022/01/28 09:55:52;;;;;;;47.88;6.47;;;;;;;;;;4988819;28;20106;-69
2022/01/28 09:58:18;;;;;;;47.80;6.35;;;;;;;;;;4977523;28;20032;-69
2022/01/28 10:00:43;;;;;;;52.88;7.70;;;;;;;;;;4987842;28;20478;-68
2022/01/28 10:03:11;;;;;;;42.83;6.55;;;;;;;;;;4987170;28;20132;-68
2022/01/28 10:05:40;;;;;;;53.33;6.70;;;;;;;;;;4988395;28;20591;-68
2022/01/28 10:08:08;;;;;;;39.92;5.13;;;;;;;;;;4988614;28;20498;-68
2022/01/28 10:10:53;;;;;;;32.78;5.38;;;;;;;;;;5003225;28;20038;-69
2022/01/28 10:13:21;;;;;;;32.92;4.80;;;;;;;;;;4992663;28;20057;-68
2022/01/28 10:15:52;;;;;;;43.78;5.63;;;;;;;;;;4988718;28;20037;-68
2022/01/28 10:18:18;;;;;;;41.45;5.38;;;;;;;;;;4987501;28;20064;-68
2022/01/28 10:20:46;;;;;;;30.85;4.50;;;;;;;;;;4988015;28;20168;-68
2022/01/28 10:23:13;;;;;;;30.67;3.45;;;;;;;;;;4988070;28;20748;-68
2022/01/28 10:25:41;;;;;;;39.00;4.63;;;;;;;;;;4988314;28;20425;-68
2022/01/28 10:28:10;;;;;;;30.83;4.20;;;;;;;;;;4987758;28;20164;-68
2022/01/28 10:30:40;;;;;;;34.50;4.32;;;;;;;;;;4986722;28;22005;-68
2022/01/28 10:33:14;;;;;;;25.85;3.38;;;;;;;;;;4987492;28;20054;-69
2022/01/28 10:35:47;;;;;;;31.67;4.15;;;;;;;;;;4988010;28;22011;-69
2022/01/28 10:38:26;;;;;;;31.08;4.20;;;;;;;;;;4985593;28;20054;-68
2022/01/28 10:41:10;;;;;;;31.77;5.07;;;;;;;;;;4987869;28;20737;-68
2022/01/28 10:43:46;;;;;;;26.50;4.00;;;;;;;;;;4986814;28;20022;-68
2022/01/28 10:46:12;;;;;;;29.77;4.35;;;;;;;;;;4986795;28;20085;-68
2022/01/28 10:48:51;;;;;;;30.27;3.25;;;;;;;;;;4986579;28;20034;-68
2022/01/28 10:51:20;;;;;;;35.45;4.90;;;;;;;;;;4987617;28;20036;-68
2022/01/28 10:54:22;;;;;;;19.98;3.55;;;;;;;;;;4988558;28;20040;-69
2022/01/28 10:56:56;;;;;;;25.40;3.50;;;;;;;;;;4965381;28;20405;-69
2022/01/28 10:59:23;;;;;;;20.38;3.95;;;;;;;;;;4983561;28;20192;-68
2022/01/28 11:01:49;;;;;;;33.22;4.85;;;;;;;;;;4987135;28;20030;-68
2022/01/28 11:04:15;;;;;;;42.67;5.22;;;;;;;;;;4987219;28;20037;-68
2022/01/28 11:06:42;;;;;;;30.13;4.28;;;;;;;;;;4991349;28;20666;-68
2022/01/28 11:09:13;;;;;;;36.22;5.32;;;;;;;;;;4986363;28;20607;-68
2022/01/28 11:11:38;;;;;;;46.75;5.15;;;;;;;;;;4985594;28;20030;-69
2022/01/28 11:14:05;;;;;;;29.85;3.47;;;;;;;;;;4991080;28;20030;-68
2022/01/28 11:16:30;;;;;;;19.20;3.40;;;;;;;;;;4986818;28;20033;-68
2022/01/28 11:18:59;;;;;;;19.00;3.97;;;;;;;;;;4986714;28;20478;-68
2022/01/28 11:21:33;;;;;;;23.05;4.03;;;;;;;;;;4986347;28;20048;-68
2022/01/28 11:24:08;;;;;;;37.22;4.72;;;;;;;;;;4986716;28;20669;-68
2022/01/28 11:26:39;;;;;;;29.55;3.38;;;;;;;;;;4986702;28;20023;-68
2022/01/28 11:29:12;;;;;;;32.15;4.35;;;;;;;;;;4987208;28;20676;-69
2022/01/28 11:31:45;;;;;;;43.03;5.15;;;;;;;;;;4986646;28;20064;-68
2022/01/28 11:34:24;;;;;;;39.60;5.55;;;;;;;;;;4986232;28;21908;-68
2022/01/28 11:36:54;;;;;;;35.33;4.20;;;;;;;;;;5001505;28;20022;-69
2022/01/28 11:39:34;;;;;;;27.20;3.53;;;;;;;;;;4986577;28;22102;-69
2022/01/28 11:42:25;;;;;;;23.88;3.50;;;;;;;;;;4986419;28;20041;-69
2022/01/28 11:44:50;;;;;;;35.67;4.28;;;;;;;;;;4985729;28;20168;-69
2022/01/28 11:47:32;;;;;;;33.83;4.68;;;;;;;;;;4986303;28;20030;-69
2022/01/28 11:50:01;;;;;;;24.95;3.40;;;;;;;;;;4989646;28;20058;-69
2022/01/28 11:52:30;;;;;;;21.77;3.58;;;;;;;;;;4986492;28;20033;-68
2022/01/28 11:54:56;;;;;;;36.63;4.43;;;;;;;;;;5001524;28;20030;-69
2022/01/28 11:57:25;;;;;;;39.83;4.32;;;;;;;;;;4987535;28;20376;-68
2022/01/28 11:59:50;;;;;;;26.50;3.70;;;;;;;;;;4969789;28;20466;-69
2022/01/28 12:02:18;;;;;;;23.40;3.30;;;;;;;;;;4986028;28;20043;-69
2022/01/28 12:04:44;;;;;;;21.88;2.90;;;;;;;;;;4985157;28;20064;-69
2022/01/28 12:07:23;;;;;;;24.67;3.05;;;;;;;;;;4985752;28;20023;-68
2022/01/28 12:09:54;;;;;;;24.00;2.80;;;;;;;;;;4985866;28;20057;-69
2022/01/28 12:12:21;;;;;;;25.30;2.72;;;;;;;;;;4986684;28;20037;-69
2022/01/28 12:15:04;;;;;;;23.02;3.67;;;;;;;;;;4986417;28;20210;-69
2022/01/28 12:17:29;;;;;;;20.63;2.72;;;;;;;;;;4986933;28;20025;-70
2022/01/28 12:20:22;;;;;;;22.70;2.78;;;;;;;;;;4984948;28;20049;-68
2022/01/28 12:22:47;;;;;;;;;;;;;;;;;;4986277;28;20772;-69
2022/01/28 12:25:32;;;;;;;15.23;1.98;;;;;;;;;;4986377;28;19919;-69
2022/01/28 12:28:14;;;;;;;14.98;2.58;;;;;;;;;;4984165;28;20065;-68
2022/01/28 12:30:59;;;;;;;17.30;2.15;;;;;;;;;;4985400;28;20078;-69
2022/01/28 12:33:25;;;;;;;16.10;1.95;;;;;;;;;;4985462;28;20030;-69
2022/01/28 12:35:56;;;;;;;12.45;1.73;;;;;;;;;;4975057;28;20079;-69
2022/01/28 12:38:24;;;;;;;12.88;1.58;;;;;;;;;;4984953;28;20241;-69
2022/01/28 12:40:52;;;;;;;17.90;2.22;;;;;;;;;;4986364;28;20653;-68
2022/01/28 12:43:19;;;;;;;13.82;2.00;;;;;;;;;;4985344;28;20057;-69
2022/01/28 12:45:59;;;;;;;11.65;1.88;;;;;;;;;;4985633;28;20042;-69
2022/01/28 12:48:25;;;;;;;15.40;2.40;;;;;;;;;;4990055;28;20171;-69
2022/01/28 12:50:54;;;;;;;28.20;3.75;;;;;;;;;;4985754;28;20017;-69
2022/01/28 12:53:35;;;;;;;25.60;3.45;;;;;;;;;;4985608;28;22038;-69
2022/01/28 12:56:01;;;;;;;21.05;2.63;;;;;;;;;;4989358;28;20060;-68
2022/01/28 12:58:46;;;;;;;28.98;4.78;;;;;;;;;;4989411;28;20611;-68
2022/01/28 13:01:15;;;;;;;36.90;4.75;;;;;;;;;;4978227;28;20077;-69
2022/01/28 13:09:15;;;;;;;26.05;4.15;;;;;;;;;;4988973;28;20042;-69
2022/01/28 13:11:45;;;;;;;25.65;4.20;;;;;;;;;;4989616;28;20315;-69
2022/01/28 13:14:12;;;;;;;28.83;4.75;;;;;;;;;;4988422;28;20057;-69
2022/01/28 13:16:42;;;;;;;25.48;4.50;;;;;;;;;;4977057;28;20129;-68
2022/01/28 13:19:08;;;;;;;40.88;5.22;;;;;;;;;;4988768;28;20029;-69
2022/01/28 13:21:35;;;;;;;36.60;6.25;;;;;;;;;;4989232;28;20213;-68
2022/01/28 13:24:11;;;;;;;38.70;5.78;;;;;;;;;;4989914;28;20318;-69
2022/01/28 13:27:02;;;;;;;31.50;4.55;;;;;;;;;;4988629;28;20033;-69
2022/01/28 13:29:28;;;;;;;37.47;4.82;;;;;;;;;;4986399;28;20053;-69
2022/01/28 13:31:58;;;;;;;35.17;5.60;;;;;;;;;;4988874;28;20052;-69
2022/01/28 13:34:24;;;;;;;26.13;4.80;;;;;;;;;;5002830;28;22308;-70
2022/01/28 13:36:50;;;;;;;37.90;6.00;;;;;;;;;;4988440;28;20026;-70
2022/01/28 13:39:17;;;;;;;33.10;6.53;;;;;;;;;;4993046;28;20313;-68
2022/01/28 13:41:42;;;;;;;41.42;6.68;;;;;;;;;;5003495;28;20485;-68
2022/01/28 13:44:22;;;;;;;49.53;7.22;;;;;;;;;;4988812;28;20038;-68
2022/01/28 13:46:56;;;;;;;43.50;7.00;;;;;;;;;;4988549;28;20377;-68
2022/01/28 13:49:28;;;;;;;43.67;7.18;;;;;;;;;;4988702;28;20101;-69
2022/01/28 13:51:53;;;;;;;31.92;6.32;;;;;;;;;;4989427;28;20551;-68
2022/01/28 13:54:29;;;;;;;36.17;5.75;;;;;;;;;;4992950;28;20045;-68
2022/01/28 13:56:59;;;;;;;29.15;5.38;;;;;;;;;;4988362;28;20026;-69
2022/01/28 13:59:29;;;;;;;37.78;6.55;;;;;;;;;;4986608;28;20454;-69
2022/01/28 14:01:56;;;;;;;40.75;7.28;;;;;;;;;;4976488;28;20037;-69
2022/01/28 14:04:23;;;;;;;48.33;7.45;;;;;;;;;;4987810;28;20094;-68
2022/01/28 14:06:49;;;;;;;38.35;7.65;;;;;;;;;;4988270;28;20486;-69
2022/01/28 14:09:19;;;;;;;38.25;7.22;;;;;;;;;;4987881;28;20034;-68
2022/01/28 14:11:47;;;;;;;53.90;7.82;;;;;;;;;;4988178;28;20592;-68
2022/01/28 14:14:21;;;;;;;34.95;7.18;;;;;;;;;;4987841;28;20625;-69
2022/01/28 14:16:54;;;;;;;39.50;7.22;;;;;;;;;;4988164;28;20045;-69
2022/01/28 14:19:20;;;;;;;36.58;6.63;;;;;;;;;;4987352;28;20183;-68
2022/01/28 14:21:46;;;;;;;32.83;6.95;;;;;;;;;;4988642;28;20060;-69
2022/01/28 14:24:16;;;;;;;36.83;7.55;;;;;;;;;;4987765;28;20073;-70
2022/01/28 14:26:43;;;;;;;39.25;8.27;;;;;;;;;;4987644;28;20224;-69
2022/01/28 14:29:24;;;;;;;38.00;8.13;;;;;;;;;;4989366;28;20490;-69
2022/01/28 14:31:53;;;;;;;39.13;8.35;;;;;;;;;;4988825;28;20041;-69
2022/01/28 14:34:19;;;;;;;34.25;8.30;;;;;;;;;;4986888;28;20717;-69
2022/01/28 14:36:44;;;;;;;40.33;8.20;;;;;;;;;;4987449;28;20049;-70
2022/01/28 14:39:10;;;;;;;32.05;9.50;;;;;;;;;;4986995;28;20129;-69
2022/01/28 14:41:45;;;;;;;35.70;8.32;;;;;;;;;;4986002;28;20130;-70
2022/01/28 14:44:10;;;;;;;35.55;8.10;;;;;;;;;;4988281;28;20085;-69
2022/01/28 14:46:38;;;;;;;43.65;9.98;;;;;;;;;;4988898;28;20030;-70
2022/01/28 14:49:05;;;;;;;44.78;9.60;;;;;;;;;;4987007;28;20021;-70
2022/01/28 14:51:31;;;;;;;39.92;10.77;;;;;;;;;;4987848;28;20339;-69
2022/01/28 14:53:56;;;;;;;37.60;10.10;;;;;;;;;;4986750;28;20034;-69
2022/01/28 14:56:22;;;;;;;28.95;9.85;;;;;;;;;;4987779;28;20056;-68
2022/01/28 14:58:49;;;;;;;31.67;11.07;;;;;;;;;;4986753;28;20178;-69
2022/01/28 15:01:14;;;;;;;41.15;10.68;;;;;;;;;;4987383;28;20109;-69
2022/01/28 15:03:40;;;;;;;48.80;11.80;;;;;;;;;;4986845;28;20047;-69
2022/01/28 15:06:05;;;;;;;36.03;12.00;;;;;;;;;;4986857;28;20041;-69
2022/01/28 15:08:31;;;;;;;32.47;11.25;;;;;;;;;;4986688;28;20185;-68
2022/01/28 15:10:59;;;;;;;33.83;11.48;;;;;;;;;;4975483;28;20513;-69
2022/01/28 15:13:27;;;;;;;33.90;10.90;;;;;;;;;;4990882;28;20034;-68
2022/01/28 15:15:53;;;;;;;39.33;11.10;;;;;;;;;;4976231;28;20056;-68
2022/01/28 15:18:21;;;;;;;34.53;11.10;;;;;;;;;;4985793;28;20466;-68
2022/01/28 15:20:48;;;;;;;39.95;11.80;;;;;;;;;;4986794;28;20038;-69
2022/01/28 15:23:16;;;;;;;45.30;12.40;;;;;;;;;;4986437;28;20033;-69
2022/01/28 15:25:44;;;;;;;40.53;12.25;;;;;;;;;;4986362;28;20045;-70
2022/01/28 15:28:16;;;;;;;42.70;11.80;;;;;;;;;;4987082;28;21825;-69
2022/01/28 15:36:10;;;;;;;32.60;10.10;;;;;;;;;;4986078;28;20060;-71
2022/01/28 15:38:35;;;;;;;51.97;12.38;;;;;;;;;;4990548;28;20049;-72
2022/01/28 15:41:04;;;;;;;32.45;10.93;;;;;;;;;;4986466;28;20912;-70
2022/01/28 15:43:32;;;;;;;43.38;11.35;;;;;;;;;;4991055;28;20491;-70
2022/01/28 15:45:57;;;;;;;42.20;12.10;;;;;;;;;;4986744;28;20053;-71
2022/01/28 15:48:22;;;;;;;37.05;11.50;;;;;;;;;;4985457;28;20034;-69
2022/01/28 15:50:49;;;;;;;37.83;11.48;;;;;;;;;;4986319;28;20477;-71
2022/01/28 15:53:17;;;;;;;38.65;11.15;;;;;;;;;;4990542;28;20037;-72
2022/01/28 15:55:45;;;;;;;44.35;11.88;;;;;;;;;;4984808;28;20400;-73
2022/01/28 15:58:11;;;;;;;39.85;11.80;;;;;;;;;;4985169;28;20034;-72
2022/01/28 16:00:42;;;;;;;53.35;12.88;;;;;;;;;;5001069;28;20056;-72